Time;durP1;ratioP1;P1;durP2;ratioP2;P2;SDS_P1;SDS_P2;PMS_P1;PMS_P2;Temp;Humidity;BMP_temperature;BMP_pressure;BME280_temperature;BME280_humidity;BME280_pressure;Samples;Min_cycle;Max_cycle;Signal;HPM_P1;HPM_P2
2023/12/18 00:01:13;;;;;;;11.60;7.35;;;14.70;99.90;;;;;;4595305;19;20013;-80
2023/12/18 00:02:52;;;;;;;9.02;6.50;;;14.70;99.90;;;;;;4595145;19;20010;-80
2023/12/18 00:04:28;;;;;;;9.15;6.90;;;14.70;99.90;;;;;;4595136;19;20007;-80
2023/12/18 00:06:06;;;;;;;7.95;6.05;;;14.70;99.90;;;;;;4594016;19;20021;-80
2023/12/18 00:07:41;;;;;;;16.27;9.32;;;14.70;99.90;;;;;;4595067;19;20066;-80
2023/12/18 00:09:15;;;;;;;17.75;10.70;;;14.70;99.90;;;;;;4595338;19;20322;-80
2023/12/18 00:10:51;;;;;;;9.52;6.72;;;14.70;99.90;;;;;;4595137;19;20007;-80
2023/12/18 00:12:26;;;;;;;14.50;7.40;;;14.70;99.90;;;;;;4593737;19;20089;-80
2023/12/18 00:14:00;;;;;;;8.55;6.70;;;14.70;99.90;;;;;;4593483;19;20003;-80
2023/12/18 00:15:36;;;;;;;8.55;6.40;;;14.70;99.90;;;;;;4594351;19;20015;-81
2023/12/18 00:17:10;;;;;;;8.45;6.20;;;14.70;99.90;;;;;;4594899;19;20002;-80
2023/12/18 00:18:44;;;;;;;8.18;6.43;;;14.70;99.90;;;;;;4593625;19;20332;-80
2023/12/18 00:20:20;;;;;;;9.80;6.60;;;14.70;99.90;;;;;;4594571;19;20018;-80
2023/12/18 00:21:54;;;;;;;8.77;5.78;;;14.60;99.90;;;;;;4595121;19;20070;-80
2023/12/18 00:23:28;;;;;;;8.20;6.47;;;14.60;99.90;;;;;;4594662;19;20011;-80
2023/12/18 00:25:03;;;;;;;8.88;5.90;;;14.60;99.90;;;;;;4595121;19;20371;-80
2023/12/18 00:26:37;;;;;;;8.32;6.55;;;14.60;99.90;;;;;;4594743;19;20083;-80
2023/12/18 00:28:12;;;;;;;8.63;6.68;;;14.60;99.90;;;;;;4595025;19;19998;-80
2023/12/18 00:29:47;;;;;;;7.57;6.28;;;14.60;99.90;;;;;;4594905;19;20026;-80
2023/12/18 00:31:21;;;;;;;9.63;6.63;;;14.60;99.90;;;;;;4594637;19;20009;-80
2023/12/18 00:32:56;;;;;;;8.38;6.60;;;14.60;99.90;;;;;;4594562;19;20009;-80
2023/12/18 00:34:32;;;;;;;9.07;6.80;;;14.60;99.90;;;;;;4594656;19;20006;-80
2023/12/18 00:36:07;;;;;;;10.35;6.97;;;14.60;99.90;;;;;;4593409;19;20081;-80
2023/12/18 00:37:42;;;;;;;10.18;7.22;;;14.60;99.90;;;;;;4594535;19;20002;-80
2023/12/18 00:39:17;;;;;;;11.90;8.13;;;14.60;99.90;;;;;;4594505;19;20077;-80
2023/12/18 00:40:53;;;;;;;9.93;7.47;;;14.60;99.90;;;;;;4594711;19;19998;-80
2023/12/18 00:42:28;;;;;;;9.90;7.63;;;14.60;99.90;;;;;;4594381;19;19995;-80
2023/12/18 00:44:03;;;;;;;10.90;7.10;;;14.60;99.90;;;;;;4594520;19;20032;-80
2023/12/18 00:45:38;;;;;;;10.68;7.28;;;14.60;99.90;;;;;;4593694;19;20065;-80
2023/12/18 00:47:12;;;;;;;10.18;7.72;;;14.60;99.90;;;;;;4594312;19;20323;-80
2023/12/18 00:48:48;;;;;;;9.52;7.05;;;14.60;99.90;;;;;;4594330;19;20019;-80
2023/12/18 00:50:22;;;;;;;8.77;6.32;;;14.60;99.90;;;;;;4594232;19;20015;-80
2023/12/18 00:51:57;;;;;;;8.32;6.20;;;14.60;99.90;;;;;;4594430;19;20003;-80
2023/12/18 00:53:34;;;;;;;11.63;7.63;;;14.60;99.90;;;;;;4593743;19;20006;-80
2023/12/18 00:55:08;;;;;;;7.85;6.40;;;14.60;99.90;;;;;;4593858;19;20010;-80
2023/12/18 00:56:42;;;;;;;8.18;6.28;;;14.60;99.90;;;;;;4594064;19;20007;-80
2023/12/18 00:58:18;;;;;;;8.35;6.55;;;14.50;99.90;;;;;;4594100;19;20010;-80
2023/12/18 00:59:53;;;;;;;7.68;6.40;;;14.50;99.90;;;;;;4592510;19;19994;-80
2023/12/18 01:19:13;;;;;;;8.57;6.90;;;14.50;99.90;;;;;;4593827;19;20003;-80
2023/12/18 01:20:48;;;;;;;10.30;6.82;;;14.50;99.90;;;;;;4593837;19;20302;-80
2023/12/18 01:22:22;;;;;;;7.90;6.57;;;14.50;99.90;;;;;;4592259;19;20007;-80
2023/12/18 01:23:57;;;;;;;8.15;6.05;;;14.50;99.90;;;;;;4593195;19;20005;-80
2023/12/18 01:25:32;;;;;;;9.35;6.78;;;14.50;99.90;;;;;;4593825;19;20007;-80
2023/12/18 01:27:06;;;;;;;12.40;8.35;;;14.50;99.90;;;;;;4593543;19;20007;-80
2023/12/18 01:28:41;;;;;;;11.73;8.10;;;14.50;99.90;;;;;;4591188;19;20039;-80
2023/12/18 01:30:17;;;;;;;11.60;7.03;;;14.50;99.90;;;;;;4593109;19;20018;-80
2023/12/18 01:31:52;;;;;;;10.20;8.25;;;14.50;99.90;;;;;;4593660;19;20006;-80
2023/12/18 01:33:26;;;;;;;10.10;7.47;;;14.50;99.90;;;;;;4593059;19;20022;-80
2023/12/18 01:35:02;;;;;;;9.60;7.22;;;14.50;99.90;;;;;;4593322;19;20010;-80
2023/12/18 01:36:37;;;;;;;9.23;7.10;;;14.50;99.90;;;;;;4592227;19;20064;-80
2023/12/18 01:38:11;;;;;;;10.32;6.53;;;14.50;99.90;;;;;;4592373;19;20006;-80
2023/12/18 01:39:47;;;;;;;10.85;7.25;;;14.50;99.90;;;;;;4593556;19;20007;-79
2023/12/18 01:41:22;;;;;;;9.35;7.10;;;14.50;99.90;;;;;;4593225;19;20006;-80
2023/12/18 01:42:56;;;;;;;10.73;6.70;;;14.50;99.90;;;;;;4593233;19;20070;-80
2023/12/18 01:44:31;;;;;;;8.55;6.78;;;14.50;99.90;;;;;;4593229;19;20017;-80
2023/12/18 01:46:06;;;;;;;9.68;7.25;;;14.50;99.90;;;;;;4593075;19;20058;-80
2023/12/18 01:47:41;;;;;;;8.18;6.90;;;14.50;99.90;;;;;;4591669;19;20006;-80
2023/12/18 01:49:18;;;;;;;9.93;7.80;;;14.50;99.90;;;;;;4592771;19;20006;-79
2023/12/18 01:50:55;;;;;;;9.18;7.00;;;14.50;99.90;;;;;;4593254;19;20003;-79
2023/12/18 01:52:29;;;;;;;9.20;7.03;;;14.50;99.90;;;;;;4592968;19;20434;-80
2023/12/18 01:54:05;;;;;;;9.70;7.28;;;14.50;99.90;;;;;;4590586;19;20022;-79
2023/12/18 01:55:40;;;;;;;9.95;7.03;;;14.50;99.90;;;;;;4592601;19;20306;-80
2023/12/18 01:57:15;;;;;;;9.05;6.72;;;14.40;99.90;;;;;;4592822;19;20019;-80
2023/12/18 01:58:51;;;;;;;10.00;7.30;;;14.40;99.90;;;;;;4590575;19;20351;-79
2023/12/18 02:00:25;;;;;;;8.98;7.18;;;14.40;99.90;;;;;;4591774;19;20440;-79
2023/12/18 02:01:59;;;;;;;10.27;7.05;;;14.40;99.90;;;;;;4591365;19;20343;-79
2023/12/18 02:03:35;;;;;;;12.13;7.38;;;14.40;99.90;;;;;;4592515;19;20279;-79
2023/12/18 02:05:10;;;;;;;8.40;6.82;;;14.40;99.90;;;;;;4592730;19;20091;-80
2023/12/18 02:06:45;;;;;;;9.80;7.32;;;14.50;99.90;;;;;;4592567;19;20014;-80
2023/12/18 02:08:20;;;;;;;7.88;6.82;;;14.40;99.90;;;;;;4592166;19;20010;-80
2023/12/18 02:09:54;;;;;;;9.48;7.35;;;14.40;99.90;;;;;;4591585;19;20307;-80
2023/12/18 02:11:31;;;;;;;8.02;6.90;;;14.40;99.90;;;;;;4591429;19;19999;-79
2023/12/18 02:13:06;;;;;;;10.13;7.03;;;14.40;99.90;;;;;;4592388;19;20066;-80
2023/12/18 02:14:40;;;;;;;9.95;7.97;;;14.40;99.90;;;;;;4592556;19;20211;-80
2023/12/18 02:16:15;;;;;;;8.82;7.03;;;14.40;99.90;;;;;;4592786;19;19998;-80
2023/12/18 02:17:51;;;;;;;9.85;7.50;;;14.40;99.90;;;;;;4591970;19;20010;-79
2023/12/18 02:19:29;;;;;;;10.20;8.10;;;14.40;99.90;;;;;;4592815;19;20026;-79
2023/12/18 02:21:04;;;;;;;11.20;8.13;;;14.40;99.90;;;;;;4592670;19;20009;-79
2023/12/18 02:22:52;;;;;;;10.52;7.22;;;14.40;99.90;;;;;;4592477;19;20007;-79
2023/12/18 02:24:26;;;;;;;9.07;7.28;;;14.40;99.90;;;;;;4591201;19;20003;-80
2023/12/18 02:26:01;;;;;;;10.60;8.45;;;14.40;99.90;;;;;;4591272;19;20440;-79
2023/12/18 02:27:36;;;;;;;10.57;7.97;;;14.40;99.90;;;;;;4592066;19;20006;-79
2023/12/18 02:29:10;;;;;;;10.70;7.95;;;14.40;99.90;;;;;;4590998;19;20204;-80
2023/12/18 02:30:45;;;;;;;11.75;9.27;;;14.40;99.90;;;;;;4591850;19;20002;-80
2023/12/18 02:32:20;;;;;;;10.95;8.20;;;14.40;99.90;;;;;;4590984;19;20014;-80
2023/12/18 02:33:54;;;;;;;11.35;8.45;;;14.40;99.90;;;;;;4591240;19;20006;-79
2023/12/18 02:35:28;;;;;;;10.35;8.60;;;14.40;99.90;;;;;;4592064;19;20007;-80
2023/12/18 02:37:04;;;;;;;11.93;9.68;;;14.40;99.90;;;;;;4592109;19;20437;-80
2023/12/18 02:38:39;;;;;;;15.43;11.15;;;14.40;99.90;;;;;;4591303;19;20468;-79
2023/12/18 02:40:13;;;;;;;11.93;8.75;;;14.40;99.90;;;;;;4592098;19;20019;-80
2023/12/18 02:41:49;;;;;;;13.48;10.52;;;14.40;99.90;;;;;;4592185;19;20003;-79
2023/12/18 02:43:23;;;;;;;25.52;17.98;;;14.40;99.90;;;;;;4592065;19;20006;-79
2023/12/18 02:44:58;;;;;;;16.58;12.35;;;14.40;99.90;;;;;;4592011;19;20078;-80
2023/12/18 02:46:33;;;;;;;20.05;14.85;;;14.40;99.90;;;;;;4592091;19;20036;-80
2023/12/18 02:48:07;;;;;;;17.17;12.43;;;14.40;99.90;;;;;;4591802;19;20336;-80
2023/12/18 02:49:41;;;;;;;14.15;10.23;;;14.40;99.90;;;;;;4592218;19;20061;-80
2023/12/18 02:51:17;;;;;;;19.10;14.20;;;14.40;99.90;;;;;;4592442;19;20079;-80
2023/12/18 02:52:51;;;;;;;16.52;12.00;;;14.40;99.90;;;;;;4591828;19;20319;-80
2023/12/18 02:54:25;;;;;;;24.13;15.95;;;14.40;99.90;;;;;;4591845;19;20437;-79
2023/12/18 02:56:01;;;;;;;12.55;9.77;;;14.40;99.90;;;;;;4591833;19;20007;-79
2023/12/18 02:57:35;;;;;;;24.55;15.60;;;14.40;99.90;;;;;;4590776;19;19998;-79
2023/12/18 02:59:09;;;;;;;19.08;12.90;;;14.40;99.90;;;;;;4590510;19;19999;-79
2023/12/18 03:00:46;;;;;;;24.05;16.35;;;14.40;99.90;;;;;;4590769;19;20069;-80
2023/12/18 03:02:21;;;;;;;28.30;18.33;;;14.40;99.90;;;;;;4591425;19;20007;-80
2023/12/18 03:03:56;;;;;;;23.67;16.02;;;14.40;99.90;;;;;;4591957;19;20310;-79
2023/12/18 03:05:31;;;;;;;15.40;11.68;;;14.40;99.90;;;;;;4591692;19;20441;-79
2023/12/18 03:07:06;;;;;;;16.73;12.10;;;14.40;99.90;;;;;;4591618;19;20007;-80
2023/12/18 03:08:40;;;;;;;19.10;13.65;;;14.40;99.90;;;;;;4589461;19;20074;-79
2023/12/18 03:10:15;;;;;;;13.02;10.50;;;14.40;99.90;;;;;;4591356;19;20017;-79
2023/12/18 03:11:49;;;;;;;11.43;8.60;;;14.40;99.90;;;;;;4590286;19;20059;-80
2023/12/18 03:13:25;;;;;;;9.90;7.90;;;14.40;99.90;;;;;;4589690;19;20006;-80
2023/12/18 03:15:01;;;;;;;11.02;8.85;;;14.40;99.90;;;;;;4591371;19;19999;-79
2023/12/18 03:16:36;;;;;;;10.80;8.13;;;14.40;99.90;;;;;;4590690;19;20009;-79
2023/12/18 03:18:10;;;;;;;9.50;8.10;;;14.40;99.90;;;;;;4589290;19;20018;-80
2023/12/18 03:19:46;;;;;;;10.25;8.35;;;14.40;99.90;;;;;;4591192;19;20011;-80
2023/12/18 03:21:20;;;;;;;11.52;8.90;;;14.40;99.90;;;;;;4591427;19;20015;-80
2023/12/18 03:22:55;;;;;;;10.32;8.43;;;14.40;99.90;;;;;;4591697;19;20394;-80
2023/12/18 03:24:30;;;;;;;10.25;8.38;;;14.40;99.90;;;;;;4595743;19;20021;-79
2023/12/18 03:26:07;;;;;;;10.93;9.10;;;14.40;99.90;;;;;;4596007;19;20317;-79
2023/12/18 03:27:42;;;;;;;9.18;7.97;;;14.40;99.90;;;;;;4595840;19;20002;-79
2023/12/18 03:29:18;;;;;;;11.88;9.38;;;14.40;99.90;;;;;;4596047;19;20003;-79
2023/12/18 03:30:52;;;;;;;12.07;8.27;;;14.40;99.90;;;;;;4595908;19;20002;-79
2023/12/18 03:32:27;;;;;;;10.63;8.93;;;14.40;99.90;;;;;;4595893;19;20343;-79
2023/12/18 03:34:02;;;;;;;11.05;8.75;;;14.40;99.90;;;;;;4594432;19;20445;-80
2023/12/18 03:35:37;;;;;;;12.00;9.52;;;14.40;99.90;;;;;;4595867;19;20009;-80
2023/12/18 03:37:12;;;;;;;10.93;8.75;;;14.40;99.90;;;;;;4594459;19;20002;-79
2023/12/18 03:38:47;;;;;;;13.80;9.60;;;14.40;99.90;;;;;;4593335;19;19998;-80
2023/12/18 03:40:22;;;;;;;10.77;9.35;;;14.40;99.90;;;;;;4595365;19;20323;-79
2023/12/18 03:41:57;;;;;;;11.93;8.95;;;14.40;99.90;;;;;;4595696;19;20093;-80
2023/12/18 03:43:32;;;;;;;10.02;8.35;;;14.40;99.90;;;;;;4595808;19;20006;-79
2023/12/18 03:45:07;;;;;;;12.27;9.45;;;14.40;99.90;;;;;;4595603;19;20457;-79
2023/12/18 03:46:41;;;;;;;13.35;9.85;;;14.40;99.90;;;;;;4595902;19;20607;-80
2023/12/18 03:48:17;;;;;;;12.20;9.38;;;14.40;99.90;;;;;;4593507;19;20365;-80
2023/12/18 03:49:51;;;;;;;11.70;9.55;;;14.40;99.90;;;;;;4595458;19;20022;-80
2023/12/18 03:51:26;;;;;;;10.98;8.90;;;14.40;99.90;;;;;;4595470;19;20007;-80
2023/12/18 03:53:01;;;;;;;12.05;9.68;;;14.40;99.90;;;;;;4595239;19;20014;-80
2023/12/18 03:54:35;;;;;;;11.60;8.90;;;14.40;99.90;;;;;;4595260;19;20010;-79
2023/12/18 03:56:09;;;;;;;11.77;9.25;;;14.40;99.90;;;;;;4595401;19;20295;-80
2023/12/18 03:57:45;;;;;;;11.27;8.85;;;14.40;99.90;;;;;;4595216;19;20014;-79
2023/12/18 03:59:19;;;;;;;13.38;9.32;;;14.30;99.90;;;;;;4595320;19;20014;-79
2023/12/18 04:00:53;;;;;;;12.13;9.25;;;14.40;99.90;;;;;;4595254;19;20030;-79
2023/12/18 04:02:30;;;;;;;10.30;8.65;;;14.40;99.90;;;;;;4595328;19;20030;-79
2023/12/18 04:04:04;;;;;;;11.00;8.93;;;14.40;99.90;;;;;;4595466;19;20380;-79
2023/12/18 04:05:39;;;;;;;12.75;9.27;;;14.40;99.90;;;;;;4595170;19;20327;-80
2023/12/18 04:07:14;;;;;;;10.38;8.32;;;14.40;99.90;;;;;;4595246;19;20436;-80
2023/12/18 04:08:48;;;;;;;14.35;10.07;;;14.40;99.90;;;;;;4592498;19;20010;-80
2023/12/18 04:10:22;;;;;;;12.48;9.65;;;14.40;99.90;;;;;;4594035;19;20078;-80
2023/12/18 04:11:58;;;;;;;14.18;10.27;;;14.40;99.90;;;;;;4594821;19;20023;-79
2023/12/18 04:13:31;;;;;;;14.07;10.05;;;14.40;99.90;;;;;;4594303;19;20006;-80
2023/12/18 04:15:06;;;;;;;15.50;10.40;;;14.40;99.90;;;;;;4594883;19;20300;-80
2023/12/18 04:16:42;;;;;;;12.43;10.40;;;14.40;99.90;;;;;;4595329;19;20302;-79
2023/12/18 04:18:16;;;;;;;13.35;9.95;;;14.40;99.90;;;;;;4592515;19;20018;-79
2023/12/18 04:19:51;;;;;;;10.32;9.20;;;14.40;99.90;;;;;;4593663;19;20003;-79
2023/12/18 04:21:27;;;;;;;13.48;10.40;;;14.40;99.90;;;;;;4594603;19;20017;-80
2023/12/18 04:23:01;;;;;;;12.10;9.75;;;14.30;99.90;;;;;;4594871;19;20008;-80
2023/12/18 04:24:35;;;;;;;13.52;10.20;;;14.30;99.90;;;;;;4594837;19;20002;-79
2023/12/18 04:26:12;;;;;;;12.05;9.82;;;14.30;99.90;;;;;;4593958;19;20012;-80
2023/12/18 04:27:46;;;;;;;13.00;9.43;;;14.30;99.90;;;;;;4594446;19;19998;-80
2023/12/18 04:29:21;;;;;;;17.10;11.18;;;14.30;99.90;;;;;;4593363;19;20002;-79
2023/12/18 04:30:58;;;;;;;11.07;9.38;;;14.30;99.90;;;;;;4594485;19;20005;-79
2023/12/18 04:32:32;;;;;;;11.18;9.73;;;14.30;99.90;;;;;;4593304;19;20307;-79
2023/12/18 04:34:07;;;;;;;12.38;9.40;;;14.40;99.90;;;;;;4592926;19;20003;-79
2023/12/18 04:35:43;;;;;;;12.27;9.18;;;14.30;99.90;;;;;;4594667;19;20007;-79
2023/12/18 04:37:17;;;;;;;13.43;10.13;;;14.40;99.90;;;;;;4594468;19;20450;-79
2023/12/18 04:38:51;;;;;;;13.45;9.00;;;14.30;99.90;;;;;;4593500;19;20445;-78
2023/12/18 04:40:26;;;;;;;13.98;9.98;;;14.40;99.90;;;;;;4594990;19;20280;-79
2023/12/18 04:42:00;;;;;;;13.68;10.60;;;14.40;99.90;;;;;;4594344;19;20010;-80
2023/12/18 04:43:34;;;;;;;12.65;10.07;;;14.40;99.90;;;;;;4594654;19;20315;-80
2023/12/18 04:45:11;;;;;;;13.85;9.68;;;14.50;99.90;;;;;;4594406;19;20003;-80
2023/12/18 04:46:47;;;;;;;13.75;10.15;;;14.60;99.90;;;;;;4594683;19;20058;-80
2023/12/18 04:48:20;;;;;;;12.43;10.05;;;14.80;99.90;;;;;;4593709;19;20007;-80
2023/12/18 04:49:57;;;;;;;11.23;9.07;;;14.90;99.90;;;;;;4594387;19;20006;-80
2023/12/18 04:51:31;;;;;;;12.02;9.63;;;15.00;99.90;;;;;;4594274;19;20196;-80
2023/12/18 04:53:06;;;;;;;14.20;10.57;;;15.20;99.90;;;;;;4593979;19;20003;-80
2023/12/18 04:54:42;;;;;;;13.25;10.48;;;15.30;99.90;;;;;;4594563;19;20006;-80
2023/12/18 04:56:17;;;;;;;13.43;9.73;;;15.40;99.90;;;;;;4594161;19;20003;-80
2023/12/18 04:57:51;;;;;;;13.52;10.45;;;15.50;99.90;;;;;;4593812;19;20003;-74
2023/12/18 04:59:26;;;;;;;13.85;10.43;;;15.60;99.90;;;;;;4592879;19;20003;-76
2023/12/18 05:01:01;;;;;;;10.70;8.27;;;15.70;99.90;;;;;;4593724;19;20026;-80
2023/12/18 05:02:36;;;;;;;14.10;9.88;;;15.80;99.90;;;;;;4594334;19;20460;-80
2023/12/18 05:04:12;;;;;;;11.00;9.18;;;16.00;99.90;;;;;;4594095;19;20023;-80
2023/12/18 05:05:47;;;;;;;11.40;9.60;;;16.00;99.90;;;;;;4593994;19;20002;-80
2023/12/18 05:07:21;;;;;;;14.15;10.13;;;16.00;99.90;;;;;;4592709;19;20070;-79
2023/12/18 05:08:57;;;;;;;13.85;10.45;;;16.00;99.90;;;;;;4591421;19;20009;-80
2023/12/18 05:10:32;;;;;;;12.80;9.90;;;16.00;99.90;;;;;;4593563;19;20306;-79
2023/12/18 05:12:06;;;;;;;13.98;10.27;;;16.20;99.90;;;;;;4593629;19;20367;-79
2023/12/18 05:13:41;;;;;;;11.55;8.57;;;16.20;99.90;;;;;;4592138;19;20377;-80
2023/12/18 05:15:16;;;;;;;10.85;9.02;;;16.10;99.90;;;;;;4593436;19;20062;-79
2023/12/18 05:16:50;;;;;;;13.02;9.27;;;16.20;99.90;;;;;;4593730;19;20296;-80
2023/12/18 05:18:26;;;;;;;14.85;10.73;;;16.10;99.90;;;;;;4592915;19;20018;-82
2023/12/18 05:20:00;;;;;;;13.05;9.93;;;16.10;99.90;;;;;;4593683;19;20303;-81
2023/12/18 05:21:34;;;;;;;12.18;9.93;;;16.10;99.90;;;;;;4593552;19;20002;-80
2023/12/18 05:23:10;;;;;;;15.82;10.40;;;16.20;99.90;;;;;;4593621;19;20023;-77
2023/12/18 05:24:43;;;;;;;13.18;10.00;;;16.20;99.90;;;;;;4593554;19;19999;-80
2023/12/18 05:26:19;;;;;;;11.95;9.15;;;16.10;99.90;;;;;;4592100;19;20029;-80
2023/12/18 05:27:54;;;;;;;12.55;9.73;;;16.10;99.90;;;;;;4592849;19;20016;-79
2023/12/18 05:29:28;;;;;;;12.05;10.10;;;16.10;99.90;;;;;;4593396;19;20065;-79
2023/12/18 05:31:03;;;;;;;13.30;10.25;;;16.10;99.90;;;;;;4593375;19;20022;-80
2023/12/18 05:32:39;;;;;;;12.60;9.30;;;16.00;99.90;;;;;;4592438;19;20034;-80
2023/12/18 05:34:13;;;;;;;12.23;9.85;;;16.00;99.90;;;;;;4591861;19;20322;-78
2023/12/18 05:35:47;;;;;;;12.35;10.10;;;16.00;99.90;;;;;;4592228;19;20005;-79
2023/12/18 05:37:23;;;;;;;11.82;9.32;;;16.00;99.90;;;;;;4592968;19;20006;-78
2023/12/18 05:38:57;;;;;;;13.85;10.10;;;15.90;99.90;;;;;;4590820;19;20006;-78
2023/12/18 05:40:31;;;;;;;13.50;10.48;;;15.90;99.90;;;;;;4592853;19;20002;-78
2023/12/18 05:42:07;;;;;;;15.32;10.52;;;16.00;99.90;;;;;;4592220;19;20359;-78
2023/12/18 05:43:41;;;;;;;13.10;10.18;;;15.90;99.90;;;;;;4592865;19;20323;-78
2023/12/18 05:45:16;;;;;;;11.88;9.65;;;15.90;99.90;;;;;;4593267;19;20030;-78
2023/12/18 05:46:51;;;;;;;13.48;11.00;;;15.90;99.90;;;;;;4591650;19;20010;-78
2023/12/18 05:48:26;;;;;;;13.10;9.75;;;15.90;99.90;;;;;;4592329;19;20002;-78
2023/12/18 05:50:00;;;;;;;14.45;9.93;;;15.90;99.90;;;;;;4591994;19;20314;-78
2023/12/18 05:51:36;;;;;;;13.52;11.23;;;15.80;99.90;;;;;;4592684;19;20006;-78
2023/12/18 05:53:10;;;;;;;14.27;10.68;;;15.80;99.90;;;;;;4592726;19;20326;-77
2023/12/18 05:54:46;;;;;;;11.25;9.20;;;15.70;99.90;;;;;;4591540;19;20006;-79
2023/12/18 05:56:21;;;;;;;14.23;10.13;;;15.70;99.90;;;;;;4592713;19;20088;-78
2023/12/18 05:57:55;;;;;;;13.30;9.65;;;15.70;99.90;;;;;;4592437;19;19994;-78
2023/12/18 05:59:30;;;;;;;14.27;10.43;;;15.70;99.90;;;;;;4592789;19;20070;-78
2023/12/18 06:01:05;;;;;;;12.98;10.02;;;15.60;99.90;;;;;;4592788;19;20006;-78
2023/12/18 06:02:39;;;;;;;13.23;10.23;;;15.60;99.90;;;;;;4593037;19;20003;-79
2023/12/18 06:04:14;;;;;;;14.45;10.68;;;15.60;99.90;;;;;;4592928;19;20023;-78
2023/12/18 06:05:50;;;;;;;14.90;10.05;;;15.50;99.90;;;;;;4593163;19;20010;-79
2023/12/18 06:07:24;;;;;;;14.98;10.68;;;15.50;99.90;;;;;;4592857;19;20006;-78
2023/12/18 06:08:59;;;;;;;12.10;9.07;;;15.50;99.90;;;;;;4591848;19;20066;-78
2023/12/18 06:10:35;;;;;;;13.93;9.85;;;15.50;99.90;;;;;;4592574;19;20034;-78
2023/12/18 06:12:08;;;;;;;15.00;12.02;;;15.40;99.90;;;;;;4592609;19;20002;-78
2023/12/18 06:13:43;;;;;;;16.90;11.05;;;15.40;99.90;;;;;;4590949;19;19998;-78
2023/12/18 06:15:19;;;;;;;12.95;9.95;;;15.40;99.90;;;;;;4592688;19;20013;-78
2023/12/18 06:16:53;;;;;;;13.35;10.63;;;15.40;99.90;;;;;;4592492;19;20010;-78
2023/12/18 06:18:29;;;;;;;15.90;9.93;;;15.40;99.90;;;;;;4591463;19;20347;-78
2023/12/18 06:20:05;;;;;;;11.38;8.93;;;15.40;99.90;;;;;;4591206;19;20026;-78
2023/12/18 06:21:43;;;;;;;12.20;9.68;;;15.40;99.90;;;;;;4592004;19;20082;-78
2023/12/18 06:23:17;;;;;;;12.77;9.70;;;15.30;99.90;;;;;;4592380;19;20441;-78
2023/12/18 06:24:52;;;;;;;13.77;10.98;;;15.30;99.90;;;;;;4591145;19;20011;-78
2023/12/18 06:26:26;;;;;;;14.00;10.48;;;15.30;99.90;;;;;;4592309;19;20099;-78
2023/12/18 06:28:01;;;;;;;16.25;11.20;;;15.30;99.90;;;;;;4591979;19;20006;-78
2023/12/18 06:29:37;;;;;;;18.67;11.77;;;15.30;99.90;;;;;;4592355;19;20014;-78
2023/12/18 06:31:12;;;;;;;14.00;10.20;;;15.30;99.90;;;;;;4592493;19;20002;-78
2023/12/18 06:32:48;;;;;;;14.38;11.20;;;15.30;99.90;;;;;;4592214;19;19999;-78
2023/12/18 06:34:26;;;;;;;19.02;13.70;;;15.20;99.90;;;;;;4591170;19;20006;-78
2023/12/18 06:36:00;;;;;;;17.08;12.30;;;15.20;99.90;;;;;;4592154;19;20434;-79
2023/12/18 06:37:33;;;;;;;14.70;10.32;;;15.20;99.90;;;;;;4590848;19;20338;-79
2023/12/18 06:39:11;;;;;;;17.52;12.20;;;15.20;99.90;;;;;;4591169;19;20006;-79
2023/12/18 06:40:45;;;;;;;15.35;10.93;;;15.20;99.90;;;;;;4590993;19;20319;-76
2023/12/18 06:42:20;;;;;;;14.55;10.95;;;15.20;99.90;;;;;;4591686;19;20011;-79
2023/12/18 06:43:56;;;;;;;12.82;9.40;;;15.20;99.90;;;;;;4592327;19;20013;-79
2023/12/18 06:45:30;;;;;;;14.40;11.18;;;15.10;99.90;;;;;;4592012;19;19998;-79
2023/12/18 06:47:04;;;;;;;17.38;11.23;;;15.10;99.90;;;;;;4591853;19;20010;-79
2023/12/18 06:48:41;;;;;;;15.32;10.70;;;15.10;99.90;;;;;;4591337;19;20307;-79
2023/12/18 06:50:16;;;;;;;16.92;12.70;;;15.10;99.90;;;;;;4591924;19;20007;-79
2023/12/18 06:51:50;;;;;;;16.25;11.50;;;15.10;99.90;;;;;;4592110;19;20022;-79
2023/12/18 06:53:26;;;;;;;14.77;10.52;;;15.10;99.90;;;;;;4590496;19;20006;-79
2023/12/18 06:55:01;;;;;;;16.33;11.23;;;15.10;99.90;;;;;;4590558;19;20062;-79
2023/12/18 06:56:37;;;;;;;15.15;11.05;;;15.10;99.90;;;;;;4591428;19;20019;-79
2023/12/18 06:58:12;;;;;;;15.70;11.23;;;15.10;99.90;;;;;;4591333;19;20035;-79
2023/12/18 06:59:47;;;;;;;18.83;12.48;;;15.20;99.90;;;;;;4596801;19;20011;-79
2023/12/18 07:01:21;;;;;;;17.08;11.73;;;15.30;99.90;;;;;;4596417;19;20024;-79
2023/12/18 07:02:57;;;;;;;15.68;11.18;;;15.30;99.90;;;;;;4596770;19;20299;-79
2023/12/18 07:04:32;;;;;;;14.57;10.57;;;15.50;99.90;;;;;;4596369;19;20010;-79
2023/12/18 07:06:07;;;;;;;14.18;10.27;;;15.60;99.90;;;;;;4596621;19;20010;-79
2023/12/18 07:07:43;;;;;;;16.27;11.18;;;15.70;99.90;;;;;;4594955;19;20010;-79
2023/12/18 07:09:17;;;;;;;15.00;11.35;;;15.80;99.90;;;;;;4595820;19;19999;-79
2023/12/18 07:10:51;;;;;;;15.75;10.75;;;15.90;99.90;;;;;;4596441;19;20003;-79
2023/12/18 07:12:27;;;;;;;15.00;10.55;;;15.90;99.90;;;;;;4596149;19;20017;-79
2023/12/18 07:14:04;;;;;;;13.68;9.75;;;16.00;99.90;;;;;;4593612;19;20009;-79
2023/12/18 07:15:39;;;;;;;20.38;10.80;;;16.00;99.90;;;;;;4596026;19;20003;-79
2023/12/18 07:17:15;;;;;;;16.42;11.45;;;16.10;99.90;;;;;;4596151;19;20010;-75
2023/12/18 07:18:49;;;;;;;14.38;9.95;;;16.20;99.90;;;;;;4594216;19;20025;-77
2023/12/18 07:20:23;;;;;;;15.00;10.70;;;16.20;99.90;;;;;;4595947;19;20065;-79
2023/12/18 07:21:59;;;;;;;16.25;10.18;;;16.20;99.90;;;;;;4596269;19;20445;-78
2023/12/18 07:23:33;;;;;;;12.30;10.05;;;16.20;99.90;;;;;;4594510;19;20017;-76
2023/12/18 07:25:13;;;;;;;14.20;10.35;;;16.20;99.90;;;;;;4595840;19;20010;-76
2023/12/18 07:26:48;;;;;;;17.08;10.75;;;16.20;99.90;;;;;;4596153;19;20298;-76
2023/12/18 07:28:23;;;;;;;17.73;11.27;;;16.20;99.90;;;;;;4595047;19;20002;-77
2023/12/18 07:29:58;;;;;;;13.00;9.95;;;16.10;99.90;;;;;;4595770;19;20015;-77
2023/12/18 07:31:33;;;;;;;13.63;10.63;;;16.10;99.90;;;;;;4595904;19;20066;-77
2023/12/18 07:33:07;;;;;;;16.33;11.07;;;16.10;99.90;;;;;;4596064;19;20022;-76
2023/12/18 07:34:41;;;;;;;13.90;10.82;;;16.10;99.90;;;;;;4595846;19;19998;-78
2023/12/18 07:36:18;;;;;;;13.63;9.48;;;16.00;99.90;;;;;;4596024;19;20010;-79
2023/12/18 07:37:52;;;;;;;14.00;9.93;;;16.00;99.90;;;;;;4594462;19;20092;-80
2023/12/18 07:39:27;;;;;;;15.00;10.93;;;16.00;99.90;;;;;;4595534;19;20454;-75
2023/12/18 07:41:06;;;;;;;16.10;10.23;;;16.00;99.90;;;;;;4595474;19;20015;-74
2023/12/18 07:42:39;;;;;;;15.57;10.70;;;16.00;99.90;;;;;;4595620;19;20031;-75
2023/12/18 07:44:13;;;;;;;14.55;10.35;;;15.90;99.90;;;;;;4595483;19;20006;-76
2023/12/18 07:45:49;;;;;;;15.98;10.48;;;15.90;99.90;;;;;;4595792;19;20073;-76
2023/12/18 07:47:24;;;;;;;15.07;10.10;;;15.90;99.90;;;;;;4596040;19;20418;-76
2023/12/18 07:48:58;;;;;;;17.40;11.40;;;15.80;99.90;;;;;;4594496;19;20035;-75
2023/12/18 07:50:33;;;;;;;14.32;10.00;;;15.80;99.90;;;;;;4596600;19;20006;-76
2023/12/18 07:52:08;;;;;;;14.50;10.13;;;15.80;99.90;;;;;;4596300;19;20386;-75
2023/12/18 07:53:42;;;;;;;15.43;10.63;;;15.70;99.90;;;;;;4594369;19;20107;-73
2023/12/18 07:55:17;;;;;;;15.10;10.55;;;15.70;99.90;;;;;;4596053;19;20044;-75
2023/12/18 07:56:51;;;;;;;13.95;9.35;;;15.70;99.90;;;;;;4596326;19;20422;-74
2023/12/18 07:58:27;;;;;;;15.90;10.88;;;15.70;99.90;;;;;;4594830;19;20002;-75
2023/12/18 08:00:03;;;;;;;13.48;10.25;;;15.60;99.90;;;;;;4596139;19;20036;-77
2023/12/18 08:01:40;;;;;;;15.00;10.20;;;15.60;99.90;;;;;;4595665;19;20042;-77
2023/12/18 08:03:14;;;;;;;16.58;10.93;;;15.60;99.90;;;;;;4596110;19;20426;-76
2023/12/18 08:04:51;;;;;;;15.27;10.85;;;15.60;99.90;;;;;;4596215;19;20011;-77
2023/12/18 08:06:25;;;;;;;18.17;12.00;;;15.60;99.90;;;;;;4595861;19;20006;-78
2023/12/18 08:08:00;;;;;;;16.63;11.02;;;15.50;99.90;;;;;;4595498;19;20422;-78
2023/12/18 08:09:36;;;;;;;13.52;9.77;;;15.50;99.90;;;;;;4593662;19;20009;-78
2023/12/18 08:11:11;;;;;;;14.40;9.63;;;15.50;99.90;;;;;;4596184;19;20002;-78
2023/12/18 08:12:45;;;;;;;15.27;9.88;;;15.50;99.90;;;;;;4594552;19;20007;-75
2023/12/18 08:14:20;;;;;;;16.60;9.68;;;15.40;99.90;;;;;;4594169;19;20082;-73
2023/12/18 08:15:55;;;;;;;13.50;10.18;;;15.40;99.90;;;;;;4594162;19;19999;-73
2023/12/18 08:17:29;;;;;;;13.68;10.02;;;15.40;99.90;;;;;;4595465;19;20042;-73
2023/12/18 08:19:04;;;;;;;16.42;10.05;;;15.40;99.90;;;;;;4594217;19;20018;-76
2023/12/18 08:20:38;;;;;;;16.33;11.23;;;15.40;99.90;;;;;;4595682;19;20002;-75
2023/12/18 08:22:13;;;;;;;12.38;9.63;;;15.40;99.90;;;;;;4595321;19;20007;-75
2023/12/18 08:23:48;;;;;;;18.67;11.55;;;15.40;99.90;;;;;;4594636;19;20013;-75
2023/12/18 08:25:25;;;;;;;16.60;10.18;;;15.40;99.90;;;;;;4594800;19;20014;-77